Baltimore, Maryland
Traffic Map
Current Weather Conditions
Baltimore, Maryland
Overcast
Overcast
63°
Feels Like: 63°
Wind Chill: 63° Ceiling: 4700
Heat Index: 63° Visibility: 10mi
Dew Point: 55° Wind: 16mph
Humidity: 75% Direction: 120° (ESE)
Pressure: 29.74in Gusts: 0mph
Raw Report DataKBWI 242354Z 12014KT 10SM FEW022 FEW037 BKN047 OVC250 17/13 A2974 RMK AO2 SLP070 T01720128 10183 20172 53006
Traffic Incident Summary
Active as of:
Severity:
Category:
InformationThere was an issue retrieving the traffic information for this location. Please try a different location or try again shortly.
Advertisements
Track Severe Weather on mobile